Time;durP1;ratioP1;P1;durP2;ratioP2;P2;SDS_P1;SDS_P2;PMS_P1;PMS_P2;Temp;Humidity;BMP_temperature;BMP_pressure;BME280_temperature;BME280_humidity;BME280_pressure;Samples;Min_cycle;Max_cycle;Signal;HPM_P1;HPM_P2
2023/03/22 00:00:54;;;;;;;;;;;;;;;;;;5129792;27;20005;-50
2023/03/22 00:03:20;;;;;;;;;;;;;;;;;;5130473;27;19907;-50
2023/03/22 00:05:45;;;;;;;;;;;;;;;;;;5129978;27;19976;-49
2023/03/22 00:08:12;;;;;;;;;;;;;;;;;;5130033;27;19903;-49
2023/03/22 00:10:38;;;;;;;;;;;;;;;;;;5129253;27;20546;-49
2023/03/22 00:13:04;;;;;;;;;;;;;;;;;;5129602;27;19954;-50
2023/03/22 00:15:30;;;;;;;;;;;;;;;;;;5129125;27;19911;-52
2023/03/22 00:17:57;;;;;;;;;;;;;;;;;;5129756;27;19910;-53
2023/03/22 00:20:23;;;;;;;;;;;;;;;;;;5129915;27;19965;-53
2023/03/22 00:22:49;;;;;;;;;;;;;;;;;;5130260;27;20349;-52
2023/03/22 00:25:15;;;;;;;;;;;;;;;;;;5129740;27;19960;-52
2023/03/22 00:27:41;;;;;;;;;;;;;;;;;;5129570;27;19903;-50
2023/03/22 00:30:07;;;;;;;;;;;;;;;;;;5129108;27;20001;-52
2023/03/22 00:32:33;;;;;;;;;;;;;;;;;;5129176;27;20044;-52
2023/03/22 00:35:00;;;;;;;;;;;;;;;;;;5129397;27;19899;-52
2023/03/22 00:37:32;;;;;;;;;;;;;;;;;;5128948;27;20396;-51
2023/03/22 00:39:58;;;;;;;;;;;;;;;;;;5129443;27;19952;-50
2023/03/22 00:42:24;;;;;;;;;;;;;;;;;;5129304;27;19903;-51
2023/03/22 00:44:50;;;;;;;;;;;;;;;;;;5129590;27;19911;-52
2023/03/22 00:47:16;;;;;;;;;;;;;;;;;;5129087;27;19961;-51
2023/03/22 00:49:42;;;;;;;;;;;;;;;;;;5128667;27;19990;-49
2023/03/22 00:52:08;;;;;;;;;;;;;;;;;;5128362;27;19914;-49
2023/03/22 00:54:34;;;;;;;;;;;;;;;;;;5128642;27;19987;-50
2023/03/22 00:57:00;;;;;;;;;;;;;;;;;;5128271;27;19907;-50
2023/03/22 00:59:27;;;;;;;;;;;;;;;;;;5128891;27;20333;-50
2023/03/22 01:01:54;;;;;;;;;;;;;;;;;;5129224;27;19908;-49
2023/03/22 01:04:24;;;;;;;;;;;;;;;;;;5129513;27;19904;-50
2023/03/22 06:13:57;;;;;;;;;;;;;;;;;;5105066;28;20581;-51
2023/03/22 06:16:23;;;;;;;;;;;;;;;;;;5109471;28;19919;-49
2023/03/22 06:18:50;;;;;;;;;;;;;;;;;;5108321;28;19957;-50
2023/03/22 06:21:16;;;;;;;;;;;;;;;;;;5109985;28;20002;-50
2023/03/22 06:23:42;;;;;;;;;;;;;;;;;;5109422;28;20069;-50
2023/03/22 06:26:10;;;;;;;;;;;;;;;;;;5109891;28;20365;-51
2023/03/22 06:28:36;;;;;;;;;;;;;;;;;;5110850;27;19907;-50
2023/03/22 06:31:02;;;;;;;;;;;;;;;;;;5108597;28;19907;-49
2023/03/22 06:33:27;;;;;;;;;;;;;;;;;;5109583;28;20461;-50
2023/03/22 06:35:53;;;;;;;;;;;;;;;;;;5110942;28;19956;-52
2023/03/22 06:38:19;;;;;;;;;;;;;;;;;;5110426;28;19904;-51
2023/03/22 06:40:45;;;;;;;;;;;;;;;;;;5111621;28;20667;-49
2023/03/22 06:43:11;;;;;;;;;;;;;;;;;;5111936;28;19907;-53
2023/03/22 06:45:37;;;;;;;;;;;;;;;;;;5112352;28;19907;-49
2023/03/22 06:48:03;;;;;;;;;;;;;;;;;;5112665;28;19976;-49
2023/03/22 06:50:29;;;;;;;;;;;;;;;;;;5111372;28;19914;-51
2023/03/22 06:52:55;;;;;;;;;;;;;;;;;;5118740;27;19907;-50
2023/03/22 06:55:21;;;;;;;;;;;;;;;;;;5131115;27;20391;-49
2023/03/22 06:57:48;;;;;;;;;;;;;;;;;;5131494;27;19903;-51
2023/03/22 07:00:14;;;;;;;;;;;;;;;;;;5131319;27;20378;-49
2023/03/22 07:02:40;;;;;;;;;;;;;;;;;;5131040;27;19976;-50
2023/03/22 07:05:06;;;;;;;;;;;;;;;;;;5131415;27;19903;-50
2023/03/22 07:07:31;;;;;;;;;;;;;;;;;;5130967;27;19994;-49
2023/03/22 07:09:57;;;;;;;;;;;;;;;;;;5130794;27;19907;-51
2023/03/22 07:12:23;;;;;;;;;;;;;;;;;;5130964;27;19911;-50
2023/03/22 07:14:49;;;;;;;;;;;;;;;;;;5130117;27;19915;-51
2023/03/22 07:17:15;;;;;;;;;;;;;;;;;;5130399;27;19966;-50
2023/03/22 07:19:41;;;;;;;;;;;;;;;;;;5129869;27;19912;-50
2023/03/22 07:22:07;;;;;;;;;;;;;;;;;;5128953;27;19960;-50
2023/03/22 07:24:33;;;;;;;;;;;;;;;;;;5129257;27;19915;-52
2023/03/22 07:26:59;;;;;;;;;;;;;;;;;;5131080;27;19911;-52
2023/03/22 07:29:25;;;;;;;;;;;;;;;;;;5132202;27;19911;-52
2023/03/22 07:31:51;;;;;;;;;;;;;;;;;;5132107;27;19904;-48
2023/03/22 07:34:18;;;;;;;;;;;;;;;;;;5131761;27;19957;-52
2023/03/22 07:36:44;;;;;;;;;;;;;;;;;;5131859;27;19930;-51
2023/03/22 07:39:10;;;;;;;;;;;;;;;;;;5132087;27;19903;-50
2023/03/22 07:41:36;;;;;;;;;;;;;;;;;;5131821;27;19907;-52
2023/03/22 07:44:02;;;;;;;;;;;;;;;;;;5131712;27;19908;-52
2023/03/22 07:46:27;;;;;;;;;;;;;;;;;;5130332;27;19907;-51
2023/03/22 07:48:54;;;;;;;;;;;;;;;;;;5126432;27;19907;-52
2023/03/22 07:51:20;;;;;;;;;;;;;;;;;;5130070;27;19951;-52
2023/03/22 07:53:46;;;;;;;;;;;;;;;;;;5130231;27;20389;-49
2023/03/22 07:56:12;;;;;;;;;;;;;;;;;;5130073;27;19904;-49
2023/03/22 07:58:39;;;;;;;;;;;;;;;;;;5130253;27;19911;-50
2023/03/22 08:01:07;;;;;;;;;;;;;;;;;;5129772;27;20459;-51
2023/03/22 08:03:33;;;;;;;;;;;;;;;;;;5129957;27;19911;-51
2023/03/22 08:06:03;;;;;;;;;;;;;;;;;;5130638;27;19911;-53
2023/03/22 08:08:29;;;;;;;;;;;;;;;;;;5131511;27;19931;-51
2023/03/22 08:10:55;;;;;;;;;;;;;;;;;;5131181;27;20092;-53
2023/03/22 08:13:20;;;;;;;;;;;;;;;;;;5127745;27;19907;-51
2023/03/22 08:15:46;;;;;;;;;;;;;;;;;;5128543;27;19962;-49
2023/03/22 08:18:12;;;;;;;;;;;;;;;;;;5116893;27;19903;-51
2023/03/22 08:20:38;;;;;;;;;;;;;;;;;;5107254;28;20030;-52
2023/03/22 08:23:06;;;;;;;;;;;;;;;;;;5107323;28;19939;-51
2023/03/22 08:25:32;;;;;;;;;;;;;;;;;;5107063;28;20298;-49
2023/03/22 08:27:58;;;;;;;;;;;;;;;;;;5107905;28;19903;-52
2023/03/22 08:30:25;;;;;;;;;;;;;;;;;;5107629;28;19910;-51
2023/03/22 08:32:51;;;;;;;;;;;;;;;;;;5107105;28;20444;-49
2023/03/22 08:35:17;;;;;;;;;;;;;;;;;;5106884;28;19904;-50
2023/03/22 08:37:42;;;;;;;;;;;;;;;;;;5107061;28;19908;-51
2023/03/22 08:40:09;;;;;;;;;;;;;;;;;;5119779;27;19944;-53
2023/03/22 08:42:35;;;;;;;;;;;;;;;;;;5135543;27;19968;-49
2023/03/22 08:45:01;;;;;;;;;;;;;;;;;;5129547;27;19934;-50
2023/03/22 08:47:27;;;;;;;;;;;;;;;;;;5129851;27;20308;-51
2023/03/22 08:49:53;;;;;;;;;;;;;;;;;;5127995;27;19946;-49
2023/03/22 08:52:19;;;;;;;;;;;;;;;;;;5127018;27;19959;-49
2023/03/22 08:54:45;;;;;;;;;;;;;;;;;;5127517;27;19914;-49
2023/03/22 08:57:12;;;;;;;;;;;;;;;;;;5127408;27;19914;-52
2023/03/22 08:59:38;;;;;;;;;;;;;;;;;;5127678;27;19917;-53
2023/03/22 09:02:05;;;;;;;;;;;;;;;;;;5126895;27;19907;-53
2023/03/22 09:04:32;;;;;;;;;;;;;;;;;;5127066;27;20431;-51
2023/03/22 09:06:58;;;;;;;;;;;;;;;;;;5127602;27;19911;-52
2023/03/22 09:09:24;;;;;;;;;;;;;;;;;;5127157;27;19911;-50
2023/03/22 09:11:50;;;;;;;;;;;;;;;;;;5127061;27;19913;-52
2023/03/22 09:14:15;;;;;;;;;;;;;;;;;;5126846;27;20306;-50
2023/03/22 09:16:42;;;;;;;;;;;;;;;;;;5127088;27;19907;-52
2023/03/22 09:19:08;;;;;;;;;;;;;;;;;;5127248;27;20374;-51
2023/03/22 09:21:34;;;;;;;;;;;;;;;;;;5126653;27;19911;-51
2023/03/22 09:24:00;;;;;;;;;;;;;;;;;;5126767;27;19953;-53
2023/03/22 09:26:26;;;;;;;;;;;;;;;;;;5127350;27;19908;-53
2023/03/22 09:28:52;;;;;;;;;;;;;;;;;;5126937;27;20222;-52
2023/03/22 09:31:18;;;;;;;;;;;;;;;;;;5126660;27;19904;-51
2023/03/22 09:33:44;;;;;;;;;;;;;;;;;;5126787;27;20341;-53
2023/03/22 09:36:11;;;;;;;;;;;;;;;;;;5126781;27;19921;-53
2023/03/22 09:38:37;;;;;;;;;;;;;;;;;;5126740;27;20438;-51
2023/03/22 09:41:04;;;;;;;;;;;;;;;;;;5126818;27;19915;-50
2023/03/22 09:43:30;;;;;;;;;;;;;;;;;;5126525;27;20382;-50
2023/03/22 09:45:56;;;;;;;;;;;;;;;;;;5127597;28;19957;-53
2023/03/22 09:48:22;;;;;;;;;;;;;;;;;;5132090;27;19907;-49
2023/03/22 09:50:48;;;;;;;;;;;;;;;;;;5133884;27;19904;-49
2023/03/22 09:53:14;;;;;;;;;;;;;;;;;;5133225;27;19903;-51
2023/03/22 09:55:40;;;;;;;;;;;;;;;;;;5133453;27;20364;-50
2023/03/22 09:58:06;;;;;;;;;;;;;;;;;;5133640;27;19934;-52
2023/03/22 10:00:31;;;;;;;;;;;;;;;;;;5133163;27;20362;-51
2023/03/22 10:02:57;;;;;;;;;;;;;;;;;;5133881;27;19907;-53
2023/03/22 10:05:23;;;;;;;;;;;;;;;;;;5133445;27;19899;-49
2023/03/22 10:07:49;;;;;;;;;;;;;;;;;;5133299;27;19945;-50
2023/03/22 10:10:18;;;;;;;;;;;;;;;;;;5127469;27;19908;-52
2023/03/22 10:12:44;;;;;;;;;;;;;;;;;;5113080;28;19922;-53
2023/03/22 10:15:10;;;;;;;;;;;;;;;;;;5113305;27;19912;-54
2023/03/22 10:17:37;;;;;;;;;;;;;;;;;;5112620;28;19910;-50
2023/03/22 10:20:05;;;;;;;;;;;;;;;;;;5110983;28;19946;-50
2023/03/22 10:22:30;;;;;;;;;;;;;;;;;;5112743;28;19998;-53
2023/03/22 10:24:57;;;;;;;;;;;;;;;;;;5112485;28;20038;-53
2023/03/22 10:27:23;;;;;;;;;;;;;;;;;;5112638;28;19904;-51
2023/03/22 10:29:49;;;;;;;;;;;;;;;;;;5112415;28;19907;-53
2023/03/22 10:32:15;;;;;;;;;;;;;;;;;;5112474;28;20290;-54
2023/03/22 10:34:42;;;;;;;;;;;;;;;;;;5113266;28;19904;-52
2023/03/22 10:37:08;;;;;;;;;;;;;;;;;;5113360;28;19904;-53
2023/03/22 10:39:34;;;;;;;;;;;;;;;;;;5112267;28;19930;-52
2023/03/22 10:42:00;;;;;;;;;;;;;;;;;;5112955;28;19908;-52
2023/03/22 10:44:26;;;;;;;;;;;;;;;;;;5112831;28;19910;-52
2023/03/22 10:46:52;;;;;;;;;;;;;;;;;;5112655;28;19994;-51
2023/03/22 10:49:18;;;;;;;;;;;;;;;;;;5112473;28;19991;-49
2023/03/22 10:51:44;;;;;;;;;;;;;;;;;;5112565;28;19957;-50
2023/03/22 10:54:09;;;;;;;;;;;;;;;;;;5112782;28;19907;-51
2023/03/22 10:56:35;;;;;;;;;;;;;;;;;;5112234;28;19915;-50
2023/03/22 10:59:01;;;;;;;;;;;;;;;;;;5110592;28;20207;-53
2023/03/22 11:01:32;;;;;;;1.45;0.70;;;;;;;;;;5108364;28;20417;-50
2023/03/22 11:04:00;;;;;;;1.13;1.00;;;;;;;;;;5108558;28;20103;-48
2023/03/22 11:06:31;;;;;;;0.70;0.70;;;;;;;;;;5108817;28;20066;-53
2023/03/22 11:09:01;;;;;;;0.95;0.75;;;;;;;;;;5108391;28;20047;-51
2023/03/22 11:11:27;;;;;;;0.80;0.60;;;;;;;;;;5089798;28;20511;-51
2023/03/22 11:14:12;;;;;;;1.10;0.75;;;;;;;;;;5108480;28;20526;-49
2023/03/22 11:16:50;;;;;;;0.55;0.55;;;;;;;;;;5109040;28;20028;-49
2023/03/22 11:19:42;;;;;;;0.60;0.60;;;;;;;;;;5108501;28;20098;-53
2023/03/22 11:22:35;;;;;;;0.55;0.50;;;;;;;;;;5104081;28;20571;-52
2023/03/22 11:25:02;;;;;;;0.93;0.73;;;;;;;;;;5103568;28;20457;-51
2023/03/22 11:27:29;;;;;;;0.60;0.60;;;;;;;;;;5108158;28;20028;-52
2023/03/22 11:30:00;;;;;;;1.42;0.80;;;;;;;;;;5107892;28;20028;-51
2023/03/22 11:32:35;;;;;;;1.50;0.80;;;;;;;;;;5108063;28;20047;-51
2023/03/22 11:35:01;;;;;;;1.02;0.77;;;;;;;;;;5108304;28;20338;-52
2023/03/22 11:37:27;;;;;;;0.50;0.50;;;;;;;;;;5107886;28;20028;-51
2023/03/22 11:39:58;;;;;;;1.10;0.75;;;;;;;;;;5107938;28;20055;-53
2023/03/22 11:42:25;;;;;;;0.70;0.70;;;;;;;;;;5108379;28;20439;-49
2023/03/22 11:44:52;;;;;;;0.90;0.80;;;;;;;;;;5107727;28;20020;-52
2023/03/22 11:47:18;;;;;;;0.57;0.57;;;;;;;;;;5108066;28;20089;-49
2023/03/22 11:49:49;;;;;;;0.60;0.60;;;;;;;;;;5107725;28;20406;-51
2023/03/22 11:52:21;;;;;;;0.60;0.60;;;;;;;;;;5107642;28;20105;-49
2023/03/22 11:54:48;;;;;;;0.50;0.40;;;;;;;;;;5116185;27;20058;-51
2023/03/22 11:57:21;;;;;;;0.50;0.50;;;;;;;;;;5127663;27;20031;-51
2023/03/22 11:59:49;;;;;;;0.38;0.35;;;;;;;;;;5127480;27;20497;-50
2023/03/22 12:02:15;;;;;;;0.50;0.50;;;;;;;;;;5126463;27;20039;-50
2023/03/22 12:04:43;;;;;;;0.45;0.45;;;;;;;;;;5128507;27;20094;-50
2023/03/22 12:07:13;;;;;;;1.08;0.60;;;;;;;;;;5128308;27;20419;-49
2023/03/22 12:09:56;;;;;;;0.60;0.60;;;;;;;;;;5108369;27;20495;-50
2023/03/22 12:12:26;;;;;;;0.40;0.40;;;;;;;;;;5107919;28;20513;-50
2023/03/22 12:15:27;;;;;;;0.57;0.57;;;;;;;;;;5107121;27;20101;-49
2023/03/22 12:18:00;;;;;;;0.55;0.55;;;;;;;;;;5003452;28;20109;-52
2023/03/22 12:20:29;;;;;;;0.30;0.30;;;;;;;;;;5091974;27;20088;-52
2023/03/22 12:22:55;;;;;;;1.17;0.45;;;;;;;;;;5126404;27;20055;-50
2023/03/22 12:25:23;;;;;;;0.50;0.50;;;;;;;;;;5108411;27;20381;-51
2023/03/22 12:28:01;;;;;;;0.40;0.40;;;;;;;;;;5126209;27;20019;-51
2023/03/22 12:30:31;;;;;;;0.77;0.60;;;;;;;;;;5126058;27;20290;-53
2023/03/22 12:32:57;;;;;;;0.85;0.68;;;;;;;;;;5125673;27;20092;-54
2023/03/22 12:35:27;;;;;;;0.50;0.50;;;;;;;;;;5126851;27;20027;-54
2023/03/22 12:37:58;;;;;;;0.40;0.40;;;;;;;;;;5126441;27;20458;-53
2023/03/22 12:40:51;;;;;;;0.43;0.43;;;;;;;;;;5126554;27;20058;-51
2023/03/22 12:43:36;;;;;;;2.60;0.80;;;;;;;;;;5103064;27;20498;-51
2023/03/22 12:46:03;;;;;;;0.85;0.50;;;;;;;;;;5124829;27;20046;-51
2023/03/22 12:48:37;;;;;;;0.60;0.50;;;;;;;;;;5125887;27;20510;-52
2023/03/22 12:51:03;;;;;;;;;;;;;;;;;;5125623;27;20027;-51
2023/03/22 12:53:41;;;;;;;0.80;0.50;;;;;;;;;;5106198;27;20413;-53
2023/03/22 12:56:27;;;;;;;0.30;0.30;;;;;;;;;;5125730;27;20031;-54
2023/03/22 12:58:58;;;;;;;0.35;0.35;;;;;;;;;;5096801;27;20039;-51
2023/03/22 13:01:32;;;;;;;0.40;0.40;;;;;;;;;;5125914;27;20414;-55
2023/03/22 13:03:58;;;;;;;0.35;0.35;;;;;;;;;;5124772;27;20022;-50
2023/03/22 13:06:46;;;;;;;0.40;0.40;;;;;;;;;;5125686;27;20019;-53
2023/03/22 13:09:17;;;;;;;0.32;0.30;;;;;;;;;;5117505;27;20432;-52
2023/03/22 13:11:48;;;;;;;0.30;0.30;;;;;;;;;;5124096;27;20027;-51
2023/03/22 13:14:33;;;;;;;0.30;0.30;;;;;;;;;;5125155;27;20109;-51
2023/03/22 13:17:00;;;;;;;0.30;0.30;;;;;;;;;;5124032;27;20035;-52
2023/03/22 13:19:33;;;;;;;0.30;0.30;;;;;;;;;;5123882;27;20042;-53
2023/03/22 13:22:13;;;;;;;0.28;0.28;;;;;;;;;;5123584;27;20024;-53
2023/03/22 13:24:58;;;;;;;0.65;0.47;;;;;;;;;;5125142;27;20031;-50
2023/03/22 13:27:36;;;;;;;0.50;0.50;;;;;;;;;;5125855;27;20042;-50
2023/03/22 13:30:04;;;;;;;0.20;0.20;;;;;;;;;;5125448;27;20118;-49
2023/03/22 13:32:32;;;;;;;0.32;0.30;;;;;;;;;;5125183;27;20035;-52
2023/03/22 13:34:59;;;;;;;0.28;0.28;;;;;;;;;;5106279;27;20557;-52
2023/03/22 13:37:34;;;;;;;0.30;0.30;;;;;;;;;;5107231;27;20038;-50
2023/03/22 13:40:14;;;;;;;0.50;0.45;;;;;;;;;;5124822;27;20035;-52
2023/03/22 13:42:41;;;;;;;0.30;0.30;;;;;;;;;;5125110;27;20021;-53
2023/03/22 13:45:08;;;;;;;0.40;0.40;;;;;;;;;;5124943;27;20034;-51
2023/03/22 13:47:37;;;;;;;0.30;0.30;;;;;;;;;;5124847;28;20023;-49
2023/03/22 13:50:04;;;;;;;0.30;0.30;;;;;;;;;;5123876;28;20505;-50
2023/03/22 13:52:38;;;;;;;0.30;0.30;;;;;;;;;;5124617;28;20033;-52
2023/03/22 13:55:05;;;;;;;;;;;;;;;;;;5124960;28;20027;-51
2023/03/22 13:57:38;;;;;;;0.38;0.38;;;;;;;;;;5124883;28;20344;-50
2023/03/22 14:00:24;;;;;;;0.40;0.40;;;;;;;;;;5124834;28;20037;-50
2023/03/22 14:02:50;;;;;;;0.50;0.40;;;;;;;;;;5103719;27;20050;-51
2023/03/22 14:05:22;;;;;;;0.38;0.38;;;;;;;;;;5122761;28;20046;-51
2023/03/22 14:07:56;;;;;;;0.40;0.40;;;;;;;;;;5124620;28;20027;-52
2023/03/22 14:10:32;;;;;;;0.32;0.32;;;;;;;;;;5124652;28;20080;-53
2023/03/22 14:13:27;;;;;;;0.63;0.50;;;;;;;;;;5116505;28;20024;-52
2023/03/22 14:15:55;;;;;;;0.47;0.47;;;;;;;;;;5084846;28;20044;-50
2023/03/22 14:18:27;;;;;;;0.30;0.30;;;;;;;;;;5106504;28;20036;-53
2023/03/22 14:20:55;;;;;;;0.43;0.43;;;;;;;;;;5106112;28;20566;-52
2023/03/22 14:23:26;;;;;;;0.45;0.45;;;;;;;;;;5106062;28;20031;-52
2023/03/22 14:25:56;;;;;;;0.50;0.40;;;;;;;;;;5105975;28;20027;-52
2023/03/22 14:28:31;;;;;;;0.30;0.30;;;;;;;;;;5106910;28;20112;-52
2023/03/22 14:30:57;;;;;;;0.40;0.40;;;;;;;;;;5105773;28;20036;-53
2023/03/22 14:33:25;;;;;;;0.40;0.40;;;;;;;;;;5107259;28;20105;-52
2023/03/22 14:36:04;;;;;;;0.40;0.40;;;;;;;;;;5108444;28;20657;-53
2023/03/22 14:38:32;;;;;;;0.40;0.30;;;;;;;;;;5108590;28;20066;-51
2023/03/22 14:41:26;;;;;;;0.30;0.30;;;;;;;;;;5108445;28;20522;-49
2023/03/22 14:43:59;;;;;;;0.43;0.40;;;;;;;;;;5103932;27;20294;-51
2023/03/22 14:46:37;;;;;;;0.40;0.40;;;;;;;;;;5108321;28;20099;-50
2023/03/22 14:49:03;;;;;;;0.30;0.30;;;;;;;;;;5086667;28;20398;-49
2023/03/22 14:51:34;;;;;;;0.40;0.40;;;;;;;;;;5102933;28;20026;-53
2023/03/22 14:54:10;;;;;;;0.30;0.25;;;;;;;;;;5107457;28;20074;-49
2023/03/22 14:56:38;;;;;;;0.38;0.38;;;;;;;;;;5106990;28;20023;-52
2023/03/22 14:59:05;;;;;;;0.30;0.30;;;;;;;;;;5107628;28;20493;-50
2023/03/22 15:01:33;;;;;;;0.30;0.30;;;;;;;;;;5106308;28;20032;-50
2023/03/22 15:04:05;;;;;;;0.30;0.30;;;;;;;;;;5107404;28;20439;-49
2023/03/22 15:06:33;;;;;;;0.50;0.50;;;;;;;;;;5107225;28;20190;-52
2023/03/22 15:09:09;;;;;;;0.50;0.40;;;;;;;;;;5107185;28;20027;-52
2023/03/22 15:11:38;;;;;;;0.38;0.38;;;;;;;;;;5118007;27;20434;-52
2023/03/22 15:14:04;;;;;;;0.25;0.25;;;;;;;;;;5106851;28;20117;-52
2023/03/22 15:16:32;;;;;;;0.45;0.40;;;;;;;;;;5107261;28;20506;-52
2023/03/22 15:18:59;;;;;;;0.40;0.40;;;;;;;;;;5107139;28;20027;-54
2023/03/22 15:21:26;;;;;;;2.53;0.50;;;;;;;;;;5107018;28;20434;-51
2023/03/22 15:23:53;;;;;;;0.60;0.60;;;;;;;;;;5106901;28;20394;-49
2023/03/22 15:26:26;;;;;;;0.75;0.40;;;;;;;;;;5088965;28;20028;-49
2023/03/22 15:29:03;;;;;;;0.38;0.38;;;;;;;;;;5107356;28;20027;-49
2023/03/22 15:31:49;;;;;;;0.50;0.50;;;;;;;;;;5107058;28;20023;-52
2023/03/22 15:34:27;;;;;;;0.40;0.40;;;;;;;;;;5088692;28;21184;-50
2023/03/22 15:36:54;;;;;;;0.75;0.50;;;;;;;;;;5106674;28;20400;-51
2023/03/22 15:39:35;;;;;;;0.40;0.40;;;;;;;;;;5088612;28;20035;-49
2023/03/22 15:42:13;;;;;;;0.40;0.40;;;;;;;;;;5106376;28;20351;-48
2023/03/22 15:44:40;;;;;;;0.40;0.40;;;;;;;;;;5106203;28;20486;-49
2023/03/22 15:47:06;;;;;;;0.40;0.40;;;;;;;;;;5106349;28;20023;-52
2023/03/22 15:49:32;;;;;;;0.43;0.40;;;;;;;;;;5106520;28;20027;-52
2023/03/22 15:52:13;;;;;;;0.50;0.50;;;;;;;;;;5105801;28;20023;-52
2023/03/22 15:54:47;;;;;;;0.50;0.40;;;;;;;;;;5106549;28;20054;-52
2023/03/22 15:57:17;;;;;;;1.65;0.60;;;;;;;;;;5087972;28;20063;-51
2023/03/22 15:59:51;;;;;;;0.98;0.70;;;;;;;;;;5106171;28;20383;-52
2023/03/22 16:02:29;;;;;;;0.60;0.50;;;;;;;;;;5087645;28;20024;-51
2023/03/22 16:04:56;;;;;;;0.50;0.50;;;;;;;;;;5106354;28;20078;-50
2023/03/22 16:07:22;;;;;;;0.45;0.43;;;;;;;;;;5106731;28;20491;-52
2023/03/22 16:09:49;;;;;;;0.57;0.50;;;;;;;;;;5087483;28;20028;-52
2023/03/22 16:12:16;;;;;;;0.80;0.68;;;;;;;;;;5106074;28;20028;-52
2023/03/22 16:14:42;;;;;;;0.40;0.40;;;;;;;;;;5106363;28;20028;-53
2023/03/22 16:17:19;;;;;;;1.70;0.57;;;;;;;;;;5106757;28;20060;-53
2023/03/22 16:19:45;;;;;;;1.23;0.60;;;;;;;;;;5107519;28;20672;-51
2023/03/22 16:22:14;;;;;;;1.23;0.80;;;;;;;;;;5107093;28;20058;-53
2023/03/22 16:24:42;;;;;;;1.13;0.70;;;;;;;;;;5106725;28;20047;-51
2023/03/22 16:27:12;;;;;;;0.95;0.80;;;;;;;;;;5102717;28;20024;-52
2023/03/22 16:29:38;;;;;;;2.35;1.25;;;;;;;;;;5106891;28;20132;-51
2023/03/22 16:32:04;;;;;;;0.40;0.40;;;;;;;;;;5106082;28;20023;-56
2023/03/22 16:34:31;;;;;;;0.57;0.50;;;;;;;;;;5106083;28;20098;-53
2023/03/22 16:36:57;;;;;;;0.52;0.52;;;;;;;;;;5100861;28;20028;-51
2023/03/22 16:39:23;;;;;;;1.63;0.80;;;;;;;;;;5107383;28;20059;-52
2023/03/22 16:41:49;;;;;;;0.60;0.60;;;;;;;;;;5105845;28;20063;-50
2023/03/22 16:44:16;;;;;;;0.68;0.68;;;;;;;;;;5106736;28;20125;-54
2023/03/22 16:46:43;;;;;;;1.45;0.60;;;;;;;;;;5104564;28;20449;-51
2023/03/22 16:49:09;;;;;;;0.82;0.60;;;;;;;;;;5105613;28;20035;-54
2023/03/22 16:51:36;;;;;;;0.77;0.70;;;;;;;;;;5105797;28;20027;-52
2023/03/22 16:54:02;;;;;;;0.70;0.70;;;;;;;;;;5087976;28;20040;-54
2023/03/22 16:56:31;;;;;;;0.70;0.50;;;;;;;;;;5106429;28;20035;-52
2023/03/22 16:58:57;;;;;;;2.03;0.80;;;;;;;;;;5106468;28;20081;-53
2023/03/22 17:01:23;;;;;;;0.70;0.70;;;;;;;;;;5106596;28;20032;-53
2023/03/22 17:03:50;;;;;;;0.77;0.77;;;;;;;;;;5106402;28;20076;-51
2023/03/22 17:06:19;;;;;;;1.05;0.70;;;;;;;;;;5105842;28;20028;-51
2023/03/22 17:08:45;;;;;;;1.40;0.80;;;;;;;;;;5101159;28;20487;-52
2023/03/22 17:11:31;;;;;;;0.90;0.70;;;;;;;;;;5105257;28;20030;-55
2023/03/22 17:13:59;;;;;;;1.00;0.70;;;;;;;;;;5105648;28;20031;-50
2023/03/22 17:16:25;;;;;;;1.20;0.90;;;;;;;;;;5105736;28;20042;-54
2023/03/22 17:18:53;;;;;;;1.38;0.77;;;;;;;;;;5104594;28;20156;-53
2023/03/22 17:21:20;;;;;;;1.30;0.88;;;;;;;;;;5099117;28;20027;-56
2023/03/22 17:23:47;;;;;;;0.85;0.65;;;;;;;;;;5087991;28;20165;-54
2023/03/22 17:26:14;;;;;;;0.77;0.70;;;;;;;;;;5103670;28;20023;-52
2023/03/22 17:28:40;;;;;;;1.55;0.75;;;;;;;;;;5105102;27;20032;-53
2023/03/22 17:31:06;;;;;;;2.08;1.40;;;;;;;;;;5103051;28;20035;-53
2023/03/22 17:33:32;;;;;;;2.40;1.67;;;;;;;;;;5104664;28;20024;-56
2023/03/22 17:35:59;;;;;;;2.75;1.80;;;;;;;;;;5102138;28;20024;-53
2023/03/22 17:38:25;;;;;;;2.35;1.65;;;;;;;;;;5117614;27;20050;-50
2023/03/22 17:40:51;;;;;;;2.03;1.83;;;;;;;;;;5102686;28;20398;-50
2023/03/22 17:43:18;;;;;;;3.45;2.20;;;;;;;;;;5085906;28;20101;-52
2023/03/22 17:45:44;;;;;;;2.72;2.10;;;;;;;;;;5083844;28;20028;-51
2023/03/22 17:48:12;;;;;;;2.08;1.63;;;;;;;;;;5103687;28;20510;-52
2023/03/22 17:50:38;;;;;;;1.73;1.25;;;;;;;;;;5102196;28;20035;-50
2023/03/22 17:53:06;;;;;;;2.38;1.25;;;;;;;;;;5103356;28;20043;-54
2023/03/22 17:55:33;;;;;;;2.97;1.35;;;;;;;;;;5084206;28;20024;-50
2023/03/22 17:57:59;;;;;;;1.10;0.90;;;;;;;;;;5103469;28;20070;-52
2023/03/22 18:00:25;;;;;;;1.40;1.00;;;;;;;;;;5084499;28;20213;-51
2023/03/22 18:02:52;;;;;;;1.20;0.90;;;;;;;;;;5085390;28;20035;-53
2023/03/22 18:05:19;;;;;;;1.10;1.00;;;;;;;;;;5102688;28;20024;-53
2023/03/22 18:07:47;;;;;;;1.67;1.10;;;;;;;;;;5099172;28;20062;-54
2023/03/22 18:10:14;;;;;;;3.15;1.38;;;;;;;;;;5088308;28;20081;-55
2023/03/22 18:12:41;;;;;;;1.75;1.08;;;;;;;;;;5114575;27;20031;-51
2023/03/22 18:15:08;;;;;;;1.65;1.10;;;;;;;;;;5118559;27;20107;-51
2023/03/22 18:17:37;;;;;;;1.52;1.27;;;;;;;;;;5113262;27;20023;-56
2023/03/22 18:20:04;;;;;;;2.58;1.50;;;;;;;;;;5107459;27;20032;-54
2023/03/22 18:22:30;;;;;;;2.03;1.30;;;;;;;;;;5106779;28;20019;-54
2023/03/22 18:24:56;;;;;;;3.85;2.60;;;;;;;;;;5107784;27;20073;-55
2023/03/22 18:27:22;;;;;;;4.05;2.60;;;;;;;;;;5107443;28;20107;-56
2023/03/22 18:29:49;;;;;;;6.65;4.07;;;;;;;;;;5107136;28;20059;-52
2023/03/22 18:32:15;;;;;;;3.67;2.47;;;;;;;;;;5106259;28;20023;-55
2023/03/22 18:34:42;;;;;;;4.32;1.73;;;;;;;;;;5088808;28;20020;-54
2023/03/22 18:37:08;;;;;;;3.45;1.77;;;;;;;;;;5105795;28;20429;-54
2023/03/22 18:39:35;;;;;;;2.35;1.63;;;;;;;;;;5106890;28;20022;-54
2023/03/22 18:42:01;;;;;;;2.85;1.75;;;;;;;;;;5105511;27;20034;-53
2023/03/22 18:44:27;;;;;;;4.20;2.80;;;;;;;;;;5106981;27;20032;-54
2023/03/22 18:46:53;;;;;;;5.05;4.25;;;;;;;;;;5091369;28;20307;-49
2023/03/22 18:49:20;;;;;;;9.20;6.05;;;;;;;;;;5106651;27;20091;-51
2023/03/22 18:51:46;;;;;;;6.57;5.30;;;;;;;;;;5104243;27;20454;-54
2023/03/22 18:54:12;;;;;;;5.80;3.50;;;;;;;;;;5088526;27;20032;-55
2023/03/22 18:56:38;;;;;;;4.05;2.97;;;;;;;;;;5105380;28;20690;-54
2023/03/22 18:59:04;;;;;;;3.40;2.30;;;;;;;;;;5102122;28;20032;-56
2023/03/22 19:01:31;;;;;;;3.45;2.40;;;;;;;;;;5107975;28;20031;-55
2023/03/22 19:03:57;;;;;;;3.08;2.33;;;;;;;;;;5108273;28;20016;-55
2023/03/22 19:06:24;;;;;;;4.50;2.38;;;;;;;;;;5109046;28;20038;-53
2023/03/22 19:08:50;;;;;;;3.85;2.10;;;;;;;;;;5109011;28;20042;-52
2023/03/22 19:11:17;;;;;;;5.07;2.92;;;;;;;;;;5108268;28;20038;-52
2023/03/22 19:13:44;;;;;;;7.07;3.97;;;;;;;;;;5106266;28;20081;-51
2023/03/22 19:16:12;;;;;;;6.05;3.75;;;;;;;;;;5106340;28;20066;-51
2023/03/22 19:18:38;;;;;;;5.20;2.80;;;;;;;;;;5107202;28;20058;-52
2023/03/22 19:21:04;;;;;;;3.97;2.80;;;;;;;;;;5106381;28;21093;-52
2023/03/22 19:23:31;;;;;;;5.70;2.72;;;;;;;;;;5107508;28;20042;-52
2023/03/22 19:25:57;;;;;;;4.30;2.55;;;;;;;;;;5106098;28;20043;-51
2023/03/22 19:28:23;;;;;;;3.75;2.83;;;;;;;;;;5107933;28;20030;-49
2023/03/22 19:30:51;;;;;;;6.82;3.80;;;;;;;;;;5105479;28;20028;-50
2023/03/22 19:33:17;;;;;;;4.88;3.30;;;;;;;;;;5106203;28;20028;-53
2023/03/22 19:35:45;;;;;;;4.55;2.92;;;;;;;;;;5105113;28;20277;-50
2023/03/22 19:38:11;;;;;;;8.05;4.97;;;;;;;;;;5106577;28;20042;-50
2023/03/22 19:40:39;;;;;;;7.53;4.60;;;;;;;;;;5105351;28;20391;-47
2023/03/22 19:43:05;;;;;;;5.68;3.70;;;;;;;;;;5106331;28;20055;-46
2023/03/22 19:45:31;;;;;;;6.88;3.67;;;;;;;;;;5105493;28;20020;-49
2023/03/22 19:47:58;;;;;;;10.93;6.13;;;;;;;;;;5106002;28;20387;-48
2023/03/22 19:50:24;;;;;;;9.93;6.20;;;;;;;;;;5106572;28;20039;-47
2023/03/22 19:52:50;;;;;;;5.65;3.50;;;;;;;;;;5105767;28;20035;-45
2023/03/22 19:55:17;;;;;;;6.22;3.72;;;;;;;;;;5105723;28;20038;-46
2023/03/22 19:57:43;;;;;;;8.27;3.40;;;;;;;;;;5105480;28;20031;-48
2023/03/22 20:00:13;;;;;;;7.28;4.10;;;;;;;;;;5105271;28;20114;-47
2023/03/22 20:02:40;;;;;;;13.60;7.70;;;;;;;;;;5108379;27;20127;-46
2023/03/22 20:05:06;;;;;;;18.38;11.80;;;;;;;;;;5110700;27;20028;-49
2023/03/22 20:07:32;;;;;;;17.95;9.77;;;;;;;;;;5106366;28;20501;-46
2023/03/22 20:09:58;;;;;;;14.50;8.82;;;;;;;;;;5106033;28;20100;-48
2023/03/22 20:12:24;;;;;;;11.63;6.10;;;;;;;;;;5106559;28;20065;-50
2023/03/22 20:14:50;;;;;;;8.95;4.72;;;;;;;;;;5105787;28;20028;-46
2023/03/22 20:17:19;;;;;;;9.00;5.45;;;;;;;;;;5104612;28;20236;-45
2023/03/22 20:19:46;;;;;;;9.50;5.15;;;;;;;;;;5105241;28;20027;-46
2023/03/22 20:22:13;;;;;;;13.57;8.32;;;;;;;;;;5096925;28;20023;-47
2023/03/22 20:24:40;;;;;;;11.32;6.13;;;;;;;;;;5104615;28;20023;-46
2023/03/22 20:27:07;;;;;;;8.38;4.60;;;;;;;;;;5105079;28;20024;-46
2023/03/22 20:29:35;;;;;;;7.65;3.95;;;;;;;;;;5103323;28;20030;-46
2023/03/22 20:32:01;;;;;;;5.90;3.47;;;;;;;;;;5103961;28;20042;-46
2023/03/22 20:34:27;;;;;;;4.97;3.20;;;;;;;;;;5103879;28;20034;-46
2023/03/22 20:36:53;;;;;;;6.78;3.75;;;;;;;;;;5105364;28;20526;-45
2023/03/22 20:39:20;;;;;;;6.22;3.55;;;;;;;;;;5104148;28;20105;-48
2023/03/22 20:41:46;;;;;;;7.82;3.50;;;;;;;;;;5104076;28;20522;-46